createdAt,value
2023-03-11T00:00:32.554Z,93.82
2023-03-11T00:03:01.460Z,93.86
2023-03-11T00:05:34.583Z,93.96
2023-03-11T00:08:02.279Z,93.43
2023-03-11T00:10:32.587Z,93.63
2023-03-11T00:13:01.068Z,93.50
2023-03-11T00:15:29.459Z,93.35
2023-03-11T00:17:56.595Z,93.91
2023-03-11T00:20:29.196Z,93.99
2023-03-11T00:22:56.531Z,93.80
2023-03-11T00:25:25.297Z,93.71
2023-03-11T00:27:52.189Z,94.11
2023-03-11T00:30:21.008Z,94.01
2023-03-11T00:32:52.924Z,93.98
2023-03-11T00:35:24.678Z,93.58
2023-03-11T00:37:55.588Z,93.62
2023-03-11T00:40:24.685Z,94.05
2023-03-11T00:42:51.698Z,93.88
2023-03-11T00:45:18.599Z,93.63
2023-03-11T00:47:45.825Z,93.60
2023-03-11T00:50:21.530Z,93.98
2023-03-11T00:52:50.423Z,93.36
2023-03-11T00:55:23.467Z,93.55
2023-03-11T00:57:56.172Z,93.78
2023-03-11T01:00:31.482Z,93.96
2023-03-11T01:02:59.533Z,93.18
2023-03-11T01:05:29.412Z,93.66
2023-03-11T01:07:56.459Z,93.39
2023-03-11T01:10:23.615Z,93.39
2023-03-11T01:12:51.508Z,93.14
2023-03-11T01:15:24.097Z,93.75
2023-03-11T01:17:51.336Z,93.29
2023-03-11T01:20:18.593Z,93.72
2023-03-11T01:22:45.586Z,93.22
2023-03-11T01:25:15.328Z,92.94
2023-03-11T01:27:42.521Z,93.16
2023-03-11T01:30:12.953Z,92.79
2023-03-11T01:32:39.791Z,93.12
2023-03-11T01:35:07.305Z,92.99
2023-03-11T01:37:34.118Z,93.29
2023-03-11T01:40:00.932Z,93.56
2023-03-11T01:42:27.882Z,93.19
2023-03-11T01:44:55.666Z,93.01
2023-03-11T01:47:40.907Z,92.41
2023-03-11T01:50:12.961Z,92.75
2023-03-11T01:52:42.258Z,92.91
2023-03-11T01:55:09.898Z,93.27
2023-03-11T01:57:39.318Z,92.71
2023-03-11T02:00:09.641Z,92.35
2023-03-11T02:02:49.453Z,92.17
2023-03-11T02:05:17.067Z,92.69
2023-03-11T02:07:44.113Z,92.26
2023-03-11T02:10:14.268Z,92.47
2023-03-11T02:12:42.439Z,93.03
2023-03-11T02:15:10.603Z,93.01
2023-03-11T02:17:39.785Z,92.47
2023-03-11T02:20:25.372Z,92.87
2023-03-11T02:22:57.242Z,92.92
2023-03-11T02:25:39.433Z,92.59
2023-03-11T02:28:10.454Z,92.93
2023-03-11T02:30:40.853Z,92.59
2023-03-11T02:33:08.712Z,91.94
2023-03-11T02:35:36.096Z,91.61
2023-03-11T02:38:02.976Z,91.83
2023-03-11T02:40:51.798Z,92.28
2023-03-11T02:43:27.571Z,91.85
2023-03-11T02:45:55.604Z,91.31
2023-03-11T02:48:23.958Z,91.63
2023-03-11T02:50:51.963Z,91.40
2023-03-11T02:53:19.652Z,91.35
2023-03-11T02:55:47.134Z,91.20
2023-03-11T02:58:14.137Z,91.75
2023-03-11T03:00:41.385Z,91.33
2023-03-11T03:03:08.855Z,91.50
2023-03-11T03:05:35.865Z,91.76
2023-03-11T03:08:02.975Z,91.73
2023-03-11T03:10:29.951Z,91.21
2023-03-11T03:12:57.465Z,91.51
2023-03-11T03:15:25.254Z,91.84
2023-03-11T03:17:52.106Z,91.16
2023-03-11T03:20:19.817Z,91.82
2023-03-11T03:22:50.529Z,91.73
2023-03-11T03:25:19.779Z,91.29
2023-03-11T03:27:47.233Z,91.75
2023-03-11T03:30:15.256Z,91.13
2023-03-11T03:32:43.029Z,91.04
2023-03-11T03:35:13.004Z,90.95
2023-03-11T03:38:02.735Z,91.33
2023-03-11T03:40:29.630Z,91.34
2023-03-11T03:42:59.087Z,90.99
2023-03-11T03:45:26.912Z,90.57
2023-03-11T03:47:54.086Z,90.73
2023-03-11T03:50:23.465Z,90.84
2023-03-11T03:52:52.383Z,90.52
2023-03-11T03:55:21.175Z,90.79
2023-03-11T03:57:48.379Z,90.46
2023-03-11T04:00:16.257Z,90.86
2023-03-11T04:02:46.341Z,90.76
2023-03-11T04:05:21.989Z,90.60
2023-03-11T04:07:49.061Z,90.24
2023-03-11T04:10:16.200Z,89.89
2023-03-11T04:12:43.516Z,89.50
2023-03-11T04:15:11.167Z,89.27
2023-03-11T04:17:40.536Z,89.95
2023-03-11T04:20:09.658Z,90.04
2023-03-11T04:22:36.988Z,89.69
2023-03-11T04:25:04.813Z,89.81
2023-03-11T04:27:32.807Z,89.59
2023-03-11T04:30:00.635Z,89.50
2023-03-11T04:32:27.857Z,89.60
2023-03-11T04:34:54.904Z,89.46
2023-03-11T04:37:21.773Z,89.72
2023-03-11T04:39:50.994Z,89.35
2023-03-11T04:42:19.114Z,89.76
2023-03-11T04:44:46.056Z,89.82
2023-03-11T04:47:13.057Z,89.74
2023-03-11T04:49:40.578Z,89.76
2023-03-11T04:52:07.528Z,89.21
2023-03-11T04:54:34.343Z,89.27
2023-03-11T04:57:01.335Z,89.74
2023-03-11T04:59:28.378Z,89.78
2023-03-11T05:01:55.456Z,89.99
2023-03-11T05:04:22.801Z,89.24
2023-03-11T05:06:51.269Z,89.18
2023-03-11T05:09:18.884Z,89.11
2023-03-11T05:11:46.280Z,89.30
2023-03-11T05:14:14.642Z,88.61
2023-03-11T05:16:41.788Z,88.96
2023-03-11T05:19:28.325Z,88.85
2023-03-11T05:21:55.878Z,88.87
2023-03-11T05:24:27.586Z,89.04
2023-03-11T05:26:55.523Z,89.21
2023-03-11T05:29:23.181Z,89.40
2023-03-11T05:31:50.204Z,89.00
2023-03-11T05:34:18.590Z,88.99
2023-03-11T05:36:45.785Z,89.19
2023-03-11T05:39:13.446Z,89.01
2023-03-11T05:41:40.682Z,88.56
2023-03-11T05:44:07.648Z,89.26
2023-03-11T05:46:34.753Z,88.53
2023-03-11T05:49:02.940Z,88.38
2023-03-11T05:51:30.057Z,88.65
2023-03-11T05:53:57.224Z,88.66
2023-03-11T05:56:33.189Z,88.31
2023-03-11T05:59:00.523Z,88.15
2023-03-11T06:01:30.852Z,88.50
2023-03-11T06:03:58.014Z,88.10
2023-03-11T06:06:25.174Z,88.34
2023-03-11T06:08:52.384Z,88.39
2023-03-11T06:11:23.836Z,88.09
2023-03-11T06:13:54.566Z,88.10
2023-03-11T06:16:24.617Z,87.91
2023-03-11T06:18:52.488Z,87.58
2023-03-11T06:21:22.281Z,87.61
2023-03-11T06:23:49.903Z,87.28
2023-03-11T06:26:20.255Z,87.68
2023-03-11T06:28:48.559Z,87.08
2023-03-11T06:31:42.289Z,87.27
2023-03-11T06:34:15.460Z,87.32
2023-03-11T06:36:42.393Z,85.69
2023-03-11T06:39:13.123Z,86.14
2023-03-11T06:41:40.368Z,86.39
2023-03-11T06:44:10.698Z,85.58
2023-03-11T06:46:38.850Z,85.35
2023-03-11T06:49:06.573Z,85.94
2023-03-11T06:51:34.276Z,85.85
2023-03-11T06:54:03.073Z,85.25
2023-03-11T06:56:30.235Z,85.53
2023-03-11T06:59:05.208Z,84.96
2023-03-11T07:01:34.403Z,84.27
2023-03-11T07:04:04.465Z,84.11
2023-03-11T07:06:32.288Z,84.44
2023-03-11T07:09:05.388Z,84.98
2023-03-11T07:11:34.156Z,84.82
2023-03-11T07:14:14.723Z,84.62
2023-03-11T07:16:46.066Z,84.09
2023-03-11T07:19:24.127Z,84.09
2023-03-11T07:21:51.791Z,83.93
2023-03-11T07:24:18.665Z,83.18
2023-03-11T07:26:46.215Z,83.01
2023-03-11T07:29:13.104Z,83.22
2023-03-11T07:31:41.199Z,82.71
2023-03-11T07:34:11.603Z,81.62
2023-03-11T07:36:43.045Z,82.44
2023-03-11T07:39:16.328Z,81.49
2023-03-11T07:41:43.912Z,81.20
2023-03-11T07:44:13.582Z,81.19
2023-03-11T07:46:41.010Z,80.92
2023-03-11T07:49:08.063Z,79.22
2023-03-11T07:51:36.576Z,79.51
2023-03-11T07:54:04.085Z,79.68
2023-03-11T07:56:34.123Z,79.18
2023-03-11T07:59:02.971Z,78.07
2023-03-11T08:01:36.157Z,77.47
2023-03-11T08:04:07.623Z,76.38
2023-03-11T08:06:37.108Z,75.93
2023-03-11T08:09:09.301Z,74.48
2023-03-11T08:11:37.060Z,75.51
2023-03-11T08:14:04.910Z,74.52
2023-03-11T08:16:31.903Z,75.47
2023-03-11T08:18:59.074Z,74.46
2023-03-11T08:21:29.142Z,73.79
2023-03-11T08:23:58.961Z,74.33
2023-03-11T08:26:26.691Z,75.00
2023-03-11T08:28:55.203Z,73.81
2023-03-11T08:31:25.376Z,73.38
2023-03-11T08:33:54.878Z,73.64
2023-03-11T08:36:22.032Z,74.03
2023-03-11T08:38:49.256Z,73.66
2023-03-11T08:41:16.647Z,73.50
2023-03-11T08:43:44.571Z,73.66
2023-03-11T08:46:30.418Z,73.57
2023-03-11T08:49:00.920Z,73.99
2023-03-11T08:51:30.413Z,73.85
2023-03-11T08:53:57.858Z,72.74
2023-03-11T08:56:25.726Z,72.80
2023-03-11T08:58:52.819Z,72.44
2023-03-11T09:01:20.418Z,73.04
2023-03-11T09:03:47.354Z,71.64
2023-03-11T09:06:16.033Z,70.90
2023-03-11T09:08:44.908Z,71.40
2023-03-11T09:11:13.619Z,70.89
2023-03-11T09:13:42.304Z,69.02
2023-03-11T09:16:13.028Z,69.01
2023-03-11T09:18:40.248Z,69.28
2023-03-11T09:21:07.326Z,68.33
2023-03-11T09:23:34.344Z,68.95
2023-03-11T09:26:01.264Z,69.54
2023-03-11T09:28:28.171Z,69.16
2023-03-11T09:30:55.332Z,68.64
2023-03-11T09:33:22.366Z,68.96
2023-03-11T09:35:49.181Z,69.74
2023-03-11T09:38:16.349Z,69.96
2023-03-11T09:40:50.297Z,69.40
2023-03-11T09:43:31.276Z,70.22
2023-03-11T09:46:34.388Z,68.86
2023-03-11T09:49:33.912Z,68.82
2023-03-11T09:52:00.820Z,67.92
2023-03-11T09:54:30.748Z,67.58
2023-03-11T09:57:01.927Z,66.87
2023-03-11T09:59:32.555Z,68.08
2023-03-11T10:02:00.586Z,66.81
2023-03-11T10:04:34.228Z,66.41
2023-03-11T10:07:03.189Z,65.59
2023-03-11T10:09:41.515Z,66.22
2023-03-11T10:12:21.901Z,66.42
2023-03-11T10:14:54.873Z,64.69
2023-03-11T10:17:51.929Z,63.55
2023-03-11T10:21:00.274Z,63.48
2023-03-11T10:23:33.477Z,62.53
2023-03-11T10:26:41.697Z,61.83
2023-03-11T10:29:30.336Z,62.73
2023-03-11T10:32:34.935Z,62.49
2023-03-11T10:35:22.437Z,63.88
2023-03-11T10:38:05.590Z,63.35
2023-03-11T10:40:36.085Z,64.07
2023-03-11T10:43:32.107Z,64.24
2023-03-11T10:45:59.433Z,64.36
2023-03-11T10:48:26.329Z,64.66
2023-03-11T10:51:04.017Z,65.31
2023-03-11T10:53:31.249Z,65.74
2023-03-11T10:55:59.493Z,65.35
2023-03-11T10:58:29.437Z,65.88
2023-03-11T11:01:16.718Z,65.92
2023-03-11T11:03:47.151Z,66.09
2023-03-11T11:06:37.238Z,65.88
2023-03-11T11:09:36.727Z,66.24
2023-03-11T11:12:15.874Z,66.12
2023-03-11T11:14:48.104Z,66.17
2023-03-11T11:17:30.052Z,66.41
2023-03-11T11:19:58.895Z,66.95
2023-03-11T11:22:26.305Z,66.62
2023-03-11T11:24:55.389Z,66.33
2023-03-11T11:27:29.182Z,66.92
2023-03-11T11:30:11.191Z,67.27
2023-03-11T11:32:38.509Z,67.12
2023-03-11T11:35:14.692Z,67.51
2023-03-11T11:37:54.187Z,67.37
2023-03-11T11:40:24.076Z,67.04
2023-03-11T11:42:53.179Z,67.13
2023-03-11T11:45:30.342Z,67.51
2023-03-11T11:48:03.920Z,67.79
2023-03-11T11:50:43.454Z,67.44
2023-03-11T11:53:49.972Z,67.61
2023-03-11T11:56:16.920Z,67.19
2023-03-11T11:58:43.882Z,67.61
2023-03-11T12:01:29.146Z,66.86
2023-03-11T12:03:59.174Z,67.53
2023-03-11T12:06:38.251Z,67.58
2023-03-11T12:09:27.074Z,67.13
2023-03-11T12:12:05.149Z,67.23
2023-03-11T12:15:00.762Z,66.98
2023-03-11T12:17:30.212Z,67.89
2023-03-11T12:20:02.937Z,67.36
2023-03-11T12:22:48.592Z,67.42
2023-03-11T12:25:34.590Z,67.33
2023-03-11T12:28:20.158Z,67.18
2023-03-11T12:30:54.366Z,67.37
2023-03-11T12:33:31.647Z,67.32
2023-03-11T12:36:00.046Z,67.00
2023-03-11T12:38:34.297Z,67.50
2023-03-11T12:41:05.851Z,67.34
2023-03-11T12:43:33.915Z,67.15
2023-03-11T12:46:03.352Z,66.63
2023-03-11T12:48:30.291Z,66.99
2023-03-11T12:50:58.693Z,67.45
2023-03-11T12:53:49.385Z,66.96
2023-03-11T12:56:28.519Z,66.85
2023-03-11T12:59:07.040Z,66.63
2023-03-11T13:02:06.943Z,65.84
2023-03-11T13:05:01.583Z,66.45
2023-03-11T13:07:43.586Z,66.30
2023-03-11T13:10:34.811Z,65.96
2023-03-11T13:13:02.832Z,66.88
2023-03-11T13:15:33.804Z,66.21
2023-03-11T13:18:12.918Z,66.40
2023-03-11T13:20:42.416Z,66.43
2023-03-11T13:23:22.005Z,66.57
2023-03-11T13:26:36.560Z,66.53
2023-03-11T13:29:22.313Z,66.61
2023-03-11T13:32:13.098Z,66.69
2023-03-11T13:34:54.934Z,66.79
2023-03-11T13:37:50.292Z,66.58
2023-03-11T13:40:38.025Z,67.58
2023-03-11T13:43:20.970Z,68.18
2023-03-11T13:46:13.707Z,67.80
2023-03-11T13:48:48.256Z,68.39
2023-03-11T13:51:40.314Z,69.10
2023-03-11T13:54:22.863Z,68.45
2023-03-11T13:57:01.213Z,68.46
2023-03-11T13:59:31.639Z,68.14
2023-03-11T14:02:04.764Z,68.69
2023-03-11T14:04:35.994Z,68.23
2023-03-11T14:07:23.701Z,68.69
2023-03-11T14:09:50.753Z,67.93
2023-03-11T14:12:19.163Z,68.61
2023-03-11T14:15:11.314Z,69.25
2023-03-11T14:17:38.456Z,68.89
2023-03-11T14:20:22.432Z,69.45
2023-03-11T14:22:51.934Z,69.38
2023-03-11T14:25:31.219Z,70.01
2023-03-11T14:28:01.788Z,70.31
2023-03-11T14:30:31.660Z,70.95
2023-03-11T14:33:18.378Z,70.88
2023-03-11T14:36:12.253Z,71.00
2023-03-11T14:38:43.788Z,70.50
2023-03-11T14:41:13.941Z,71.57
2023-03-11T14:43:44.526Z,71.52
2023-03-11T14:46:22.171Z,71.96
2023-03-11T14:48:49.392Z,71.78
2023-03-11T14:51:29.252Z,72.22
2023-03-11T14:54:26.205Z,72.52
2023-03-11T14:57:24.451Z,72.92
2023-03-11T14:59:52.809Z,73.21
2023-03-11T15:03:17.026Z,73.66
2023-03-11T15:05:51.582Z,73.67
2023-03-11T15:08:23.405Z,73.77
2023-03-11T15:11:06.726Z,74.88
2023-03-11T15:13:35.377Z,74.34
2023-03-11T15:16:05.528Z,75.10
2023-03-11T15:18:37.914Z,75.40
2023-03-11T15:21:22.519Z,75.22
2023-03-11T15:23:52.718Z,75.15
2023-03-11T15:26:26.044Z,75.85
2023-03-11T15:29:23.791Z,75.62
2023-03-11T15:31:50.703Z,76.25
2023-03-11T15:34:32.073Z,75.91
2023-03-11T15:37:20.403Z,76.40
2023-03-11T15:39:51.132Z,76.76
2023-03-11T15:42:26.237Z,76.82
2023-03-11T15:45:22.077Z,76.40
2023-03-11T15:47:50.710Z,77.00
2023-03-11T15:50:26.008Z,77.80
2023-03-11T15:52:57.844Z,77.80
2023-03-11T15:55:27.189Z,78.07
2023-03-11T15:58:02.364Z,78.42
2023-03-11T16:00:29.573Z,78.10
2023-03-11T16:02:56.502Z,78.23
2023-03-11T16:05:25.136Z,78.58
2023-03-11T16:07:51.984Z,77.63
2023-03-11T16:10:21.777Z,78.44
2023-03-11T16:12:48.969Z,78.42
2023-03-11T16:15:36.920Z,78.87
2023-03-11T16:18:07.515Z,78.81
2023-03-11T16:20:41.210Z,78.63
2023-03-11T16:23:32.227Z,79.11
2023-03-11T16:26:05.208Z,79.24
2023-03-11T16:28:32.092Z,78.27
2023-03-11T16:30:58.989Z,79.19
2023-03-11T16:33:26.046Z,79.60
2023-03-11T16:35:53.193Z,79.91
2023-03-11T16:38:23.082Z,79.66
2023-03-11T16:40:57.284Z,79.60
2023-03-11T16:43:24.012Z,80.22
2023-03-11T16:45:50.854Z,80.34
2023-03-11T16:48:17.788Z,80.30
2023-03-11T16:50:44.734Z,80.68
2023-03-11T16:53:11.906Z,80.41
2023-03-11T16:55:38.881Z,80.77
2023-03-11T16:58:05.768Z,81.10
2023-03-11T17:00:32.660Z,80.60
2023-03-11T17:02:59.449Z,80.44
2023-03-11T17:05:26.235Z,80.79
2023-03-11T17:07:57.401Z,81.17
2023-03-11T17:10:24.561Z,81.05
2023-03-11T17:12:51.304Z,80.81
2023-03-11T17:15:18.143Z,80.83
2023-03-11T17:17:45.027Z,80.87
2023-03-11T17:20:12.781Z,80.77
2023-03-11T17:22:39.658Z,81.25
2023-03-11T17:25:07.116Z,81.44
2023-03-11T17:27:34.121Z,81.06
2023-03-11T17:30:02.760Z,81.30
2023-03-11T17:32:30.239Z,81.15
2023-03-11T17:34:57.252Z,81.65
2023-03-11T17:37:24.698Z,81.27
2023-03-11T17:39:51.478Z,81.54
2023-03-11T17:42:18.437Z,81.83
2023-03-11T17:44:51.687Z,82.00
2023-03-11T17:47:19.866Z,81.23
2023-03-11T17:49:48.624Z,81.15
2023-03-11T17:52:15.384Z,82.02
2023-03-11T17:54:42.465Z,81.60
2023-03-11T17:57:09.338Z,82.09
2023-03-11T17:59:38.233Z,81.78
2023-03-11T18:02:05.372Z,82.32
2023-03-11T18:04:32.535Z,82.26
2023-03-11T18:06:59.734Z,83.02
2023-03-11T18:09:26.770Z,83.36
2023-03-11T18:11:54.438Z,83.24
2023-03-11T18:14:22.802Z,82.71
2023-03-11T18:16:49.615Z,83.12
2023-03-11T18:19:17.121Z,83.22
2023-03-11T18:21:44.756Z,82.44
2023-03-11T18:24:13.100Z,83.48
2023-03-11T18:26:40.463Z,83.87
2023-03-11T18:29:13.844Z,85.25
2023-03-11T18:31:40.941Z,84.91
2023-03-11T18:34:15.892Z,85.63
2023-03-11T18:36:46.968Z,85.34
2023-03-11T18:39:15.259Z,86.60
2023-03-11T18:41:45.530Z,86.01
2023-03-11T18:44:12.565Z,85.88
2023-03-11T18:46:42.586Z,86.11
2023-03-11T18:49:15.224Z,85.07
2023-03-11T18:51:45.946Z,83.07
2023-03-11T18:54:20.111Z,83.39
2023-03-11T18:56:50.306Z,84.09
2023-03-11T18:59:17.506Z,83.72
2023-03-11T19:01:44.408Z,81.58
2023-03-11T19:04:11.336Z,82.51
2023-03-11T19:06:38.217Z,82.50
2023-03-11T19:09:06.764Z,82.56
2023-03-11T19:11:33.698Z,83.08
2023-03-11T19:14:00.487Z,82.52
2023-03-11T19:16:27.552Z,82.35
2023-03-11T19:18:55.252Z,81.61
2023-03-11T19:21:23.262Z,81.70
2023-03-11T19:23:53.839Z,81.44
2023-03-11T19:26:27.939Z,81.15
2023-03-11T19:29:00.883Z,81.66
2023-03-11T19:31:27.985Z,82.06
2023-03-11T19:33:55.301Z,81.71
2023-03-11T19:36:22.216Z,81.72
2023-03-11T19:38:49.138Z,80.52
2023-03-11T19:41:23.126Z,81.38
2023-03-11T19:43:50.692Z,81.50
2023-03-11T19:46:21.285Z,80.95
2023-03-11T19:48:48.238Z,81.41
2023-03-11T19:51:17.117Z,81.63
2023-03-11T19:53:44.278Z,82.49
2023-03-11T19:56:11.291Z,81.72
2023-03-11T19:58:38.335Z,82.09
2023-03-11T20:01:05.258Z,82.80
2023-03-11T20:03:32.082Z,82.74
2023-03-11T20:06:05.525Z,82.60
2023-03-11T20:08:36.787Z,82.42
2023-03-11T20:11:05.264Z,82.67
2023-03-11T20:13:34.689Z,82.27
2023-03-11T20:16:09.820Z,82.76
2023-03-11T20:18:37.896Z,82.11
2023-03-11T20:21:07.815Z,82.35
2023-03-11T20:23:39.142Z,82.66
2023-03-11T20:26:08.467Z,83.90
2023-03-11T20:28:36.667Z,84.89
2023-03-11T20:31:11.330Z,83.99
2023-03-11T20:33:38.993Z,84.86
2023-03-11T20:36:13.156Z,85.33
2023-03-11T20:38:41.027Z,85.98
2023-03-11T20:41:09.802Z,85.95
2023-03-11T20:43:37.791Z,85.35
2023-03-11T20:46:07.133Z,85.45
2023-03-11T20:48:35.363Z,85.23
2023-03-11T20:51:10.520Z,85.49
2023-03-11T20:53:38.559Z,85.24
2023-03-11T20:56:15.575Z,86.33
2023-03-11T20:58:45.767Z,87.70
2023-03-11T21:01:16.030Z,86.63
2023-03-11T21:03:44.164Z,87.64
2023-03-11T21:06:15.543Z,88.16
2023-03-11T21:08:43.041Z,88.11
2023-03-11T21:11:10.439Z,88.73
2023-03-11T21:13:39.196Z,88.40
2023-03-11T21:16:07.112Z,87.68
2023-03-11T21:18:34.437Z,88.50
2023-03-11T21:21:04.209Z,89.06
2023-03-11T21:23:31.792Z,87.25
2023-03-11T21:26:04.176Z,88.37
2023-03-11T21:28:34.335Z,89.11
2023-03-11T21:31:07.741Z,92.33
2023-03-11T21:33:34.981Z,90.99
2023-03-11T21:36:02.056Z,91.10
2023-03-11T21:38:29.399Z,90.65
2023-03-11T21:45:05.791Z,90.15
2023-03-11T21:47:32.821Z,89.82
2023-03-11T21:49:59.702Z,89.84
2023-03-11T21:52:26.703Z,90.59
2023-03-11T21:54:53.539Z,89.39
2023-03-11T21:57:20.325Z,89.00
2023-03-11T21:59:47.418Z,88.35
2023-03-11T22:02:16.235Z,89.07
2023-03-11T22:04:43.706Z,88.98
2023-03-11T22:07:10.877Z,89.61
2023-03-11T22:09:37.984Z,87.98
2023-03-11T22:12:05.350Z,89.41
2023-03-11T22:14:32.363Z,89.61
2023-03-11T22:16:59.227Z,89.21
2023-03-11T22:19:26.280Z,88.35
2023-03-11T22:21:53.462Z,88.48
2023-03-11T22:24:20.398Z,87.86
2023-03-11T22:26:47.580Z,87.56
2023-03-11T22:29:15.772Z,88.54
2023-03-11T22:31:43.571Z,88.38
2023-03-11T22:34:10.354Z,88.62
2023-03-11T22:36:37.200Z,88.63
2023-03-11T22:39:04.986Z,87.67
2023-03-11T22:41:32.696Z,88.27
2023-03-11T22:43:59.838Z,85.91
2023-03-11T22:46:26.778Z,86.67
2023-03-11T22:48:53.700Z,87.56
2023-03-11T22:51:21.040Z,87.69
2023-03-11T22:53:47.902Z,86.43
2023-03-11T22:56:16.774Z,84.62
2023-03-11T22:58:43.982Z,85.29
2023-03-11T23:01:11.146Z,86.39
2023-03-11T23:03:38.681Z,85.41
2023-03-11T23:06:09.254Z,85.21
2023-03-11T23:08:36.440Z,84.01
2023-03-11T23:11:05.863Z,83.28
2023-03-11T23:13:35.595Z,84.20
2023-03-11T23:16:08.041Z,82.91
2023-03-11T23:18:35.933Z,79.39
2023-03-11T23:21:03.450Z,80.80
2023-03-11T23:23:30.563Z,80.13
2023-03-11T23:25:57.360Z,79.34
2023-03-11T23:28:24.202Z,79.21
2023-03-11T23:30:51.080Z,78.80
2023-03-11T23:33:17.852Z,77.91
2023-03-11T23:35:44.716Z,78.48
2023-03-11T23:38:11.546Z,78.13
2023-03-11T23:40:40.560Z,76.66
2023-03-11T23:43:07.529Z,75.02
2023-03-11T23:45:34.373Z,75.84
2023-03-11T23:48:01.154Z,76.89
2023-03-11T23:50:28.006Z,76.97
2023-03-11T23:52:54.897Z,77.52
2023-03-11T23:55:21.705Z,76.25
2023-03-11T23:57:48.578Z,76.09
